sensor_id;sensor_type;location;lat;lon;timestamp;P1;durP1;ratioP1;P2;durP2;ratioP2
75169;SDS011;63749;49.186;9.222;2022-12-08T00:01:59;32.13;;;12.00;;
75169;SDS011;63749;49.186;9.222;2022-12-08T00:04:25;28.73;;;12.13;;
75169;SDS011;63749;49.186;9.222;2022-12-08T00:06:50;30.63;;;11.80;;
75169;SDS011;63749;49.186;9.222;2022-12-08T00:09:38;27.90;;;11.20;;
75169;SDS011;63749;49.186;9.222;2022-12-08T00:12:06;30.92;;;12.32;;
75169;SDS011;63749;49.186;9.222;2022-12-08T00:14:34;29.67;;;11.13;;
75169;SDS011;63749;49.186;9.222;2022-12-08T00:17:01;29.17;;;11.97;;
75169;SDS011;63749;49.186;9.222;2022-12-08T00:19:27;35.13;;;12.82;;
75169;SDS011;63749;49.186;9.222;2022-12-08T00:21:54;29.00;;;11.00;;
75169;SDS011;63749;49.186;9.222;2022-12-08T00:24:20;28.88;;;11.68;;
75169;SDS011;63749;49.186;9.222;2022-12-08T00:26:46;32.33;;;11.52;;
75169;SDS011;63749;49.186;9.222;2022-12-08T00:29:13;30.97;;;11.70;;
75169;SDS011;63749;49.186;9.222;2022-12-08T00:31:39;34.15;;;12.98;;
75169;SDS011;63749;49.186;9.222;2022-12-08T00:34:05;34.90;;;12.80;;
75169;SDS011;63749;49.186;9.222;2022-12-08T00:36:30;37.33;;;13.37;;
75169;SDS011;63749;49.186;9.222;2022-12-08T00:38:56;32.35;;;12.15;;
75169;SDS011;63749;49.186;9.222;2022-12-08T00:41:22;32.60;;;13.25;;
75169;SDS011;63749;49.186;9.222;2022-12-08T00:44:08;36.57;;;11.60;;
75169;SDS011;63749;49.186;9.222;2022-12-08T00:46:35;33.15;;;12.07;;
75169;SDS011;63749;49.186;9.222;2022-12-08T00:49:01;34.05;;;12.15;;
75169;SDS011;63749;49.186;9.222;2022-12-08T00:51:27;31.23;;;11.53;;
75169;SDS011;63749;49.186;9.222;2022-12-08T00:53:52;31.97;;;11.73;;
75169;SDS011;63749;49.186;9.222;2022-12-08T00:56:18;36.53;;;12.20;;
75169;SDS011;63749;49.186;9.222;2022-12-08T00:58:43;34.90;;;12.17;;
75169;SDS011;63749;49.186;9.222;2022-12-08T01:01:09;34.07;;;11.70;;
75169;SDS011;63749;49.186;9.222;2022-12-08T01:03:35;30.77;;;11.60;;
75169;SDS011;63749;49.186;9.222;2022-12-08T01:06:04;36.33;;;12.43;;
75169;SDS011;63749;49.186;9.222;2022-12-08T01:08:30;32.43;;;11.43;;
75169;SDS011;63749;49.186;9.222;2022-12-08T01:11:01;31.88;;;12.25;;
75169;SDS011;63749;49.186;9.222;2022-12-08T01:13:37;31.13;;;11.88;;
75169;SDS011;63749;49.186;9.222;2022-12-08T01:16:03;34.72;;;11.80;;
75169;SDS011;63749;49.186;9.222;2022-12-08T01:18:29;33.73;;;11.90;;
75169;SDS011;63749;49.186;9.222;2022-12-08T01:20:54;31.52;;;11.65;;
75169;SDS011;63749;49.186;9.222;2022-12-08T01:23:25;35.80;;;12.15;;
75169;SDS011;63749;49.186;9.222;2022-12-08T01:25:50;37.10;;;12.23;;
75169;SDS011;63749;49.186;9.222;2022-12-08T01:28:15;37.00;;;12.30;;
75169;SDS011;63749;49.186;9.222;2022-12-08T01:30:41;35.60;;;12.53;;
75169;SDS011;63749;49.186;9.222;2022-12-08T01:33:06;38.93;;;12.50;;
75169;SDS011;63749;49.186;9.222;2022-12-08T01:35:32;39.07;;;12.73;;
75169;SDS011;63749;49.186;9.222;2022-12-08T01:37:58;42.15;;;13.07;;
75169;SDS011;63749;49.186;9.222;2022-12-08T01:40:23;42.47;;;13.37;;
75169;SDS011;63749;49.186;9.222;2022-12-08T01:42:49;39.03;;;12.93;;
75169;SDS011;63749;49.186;9.222;2022-12-08T01:45:21;42.40;;;13.13;;
75169;SDS011;63749;49.186;9.222;2022-12-08T01:47:49;39.53;;;13.47;;
75169;SDS011;63749;49.186;9.222;2022-12-08T01:50:18;46.58;;;15.02;;
75169;SDS011;63749;49.186;9.222;2022-12-08T01:52:47;46.42;;;14.48;;
75169;SDS011;63749;49.186;9.222;2022-12-08T01:55:30;50.10;;;14.77;;
75169;SDS011;63749;49.186;9.222;2022-12-08T01:57:59;42.70;;;13.90;;
75169;SDS011;63749;49.186;9.222;2022-12-08T02:00:29;40.33;;;13.17;;
75169;SDS011;63749;49.186;9.222;2022-12-08T02:02:59;42.28;;;13.63;;
75169;SDS011;63749;49.186;9.222;2022-12-08T02:05:29;37.42;;;12.90;;
75169;SDS011;63749;49.186;9.222;2022-12-08T02:07:57;35.33;;;12.90;;
75169;SDS011;63749;49.186;9.222;2022-12-08T02:10:27;32.28;;;11.40;;
75169;SDS011;63749;49.186;9.222;2022-12-08T02:12:54;32.80;;;11.82;;
75169;SDS011;63749;49.186;9.222;2022-12-08T02:15:22;27.75;;;10.95;;
75169;SDS011;63749;49.186;9.222;2022-12-08T02:21:15;29.33;;;11.00;;
75169;SDS011;63749;49.186;9.222;2022-12-08T02:24:08;29.45;;;11.90;;
75169;SDS011;63749;49.186;9.222;2022-12-08T02:26:56;27.05;;;10.23;;
75169;SDS011;63749;49.186;9.222;2022-12-08T02:29:30;29.63;;;10.75;;
75169;SDS011;63749;49.186;9.222;2022-12-08T02:37:31;30.60;;;11.73;;
75169;SDS011;63749;49.186;9.222;2022-12-08T02:42:52;30.85;;;11.57;;
75169;SDS011;63749;49.186;9.222;2022-12-08T02:47:50;30.07;;;11.77;;
75169;SDS011;63749;49.186;9.222;2022-12-08T02:50:17;32.03;;;12.10;;
75169;SDS011;63749;49.186;9.222;2022-12-08T02:52:43;27.50;;;10.85;;
75169;SDS011;63749;49.186;9.222;2022-12-08T02:55:19;29.63;;;11.15;;
75169;SDS011;63749;49.186;9.222;2022-12-08T03:03:50;32.95;;;11.05;;
75169;SDS011;63749;49.186;9.222;2022-12-08T03:09:16;28.85;;;9.80;;
75169;SDS011;63749;49.186;9.222;2022-12-08T03:12:16;29.67;;;10.30;;
75169;SDS011;63749;49.186;9.222;2022-12-08T03:14:45;33.55;;;12.10;;
75169;SDS011;63749;49.186;9.222;2022-12-08T03:17:14;33.55;;;12.05;;
75169;SDS011;63749;49.186;9.222;2022-12-08T03:19:43;37.33;;;12.57;;
75169;SDS011;63749;49.186;9.222;2022-12-08T03:22:10;34.83;;;12.77;;
75169;SDS011;63749;49.186;9.222;2022-12-08T03:24:38;39.60;;;13.37;;
75169;SDS011;63749;49.186;9.222;2022-12-08T03:27:14;38.45;;;14.13;;
75169;SDS011;63749;49.186;9.222;2022-12-08T03:29:45;35.10;;;13.48;;
75169;SDS011;63749;49.186;9.222;2022-12-08T03:32:22;33.72;;;13.30;;
75169;SDS011;63749;49.186;9.222;2022-12-08T03:34:49;28.35;;;11.88;;
75169;SDS011;63749;49.186;9.222;2022-12-08T03:37:19;34.80;;;12.17;;
75169;SDS011;63749;49.186;9.222;2022-12-08T03:39:45;29.65;;;11.63;;
75169;SDS011;63749;49.186;9.222;2022-12-08T03:42:10;28.70;;;11.17;;
75169;SDS011;63749;49.186;9.222;2022-12-08T03:44:36;27.98;;;10.73;;
75169;SDS011;63749;49.186;9.222;2022-12-08T03:47:01;29.23;;;10.47;;
75169;SDS011;63749;49.186;9.222;2022-12-08T03:49:26;27.97;;;10.97;;
75169;SDS011;63749;49.186;9.222;2022-12-08T03:51:51;25.77;;;10.07;;
75169;SDS011;63749;49.186;9.222;2022-12-08T03:54:17;26.90;;;10.50;;
75169;SDS011;63749;49.186;9.222;2022-12-08T03:56:42;26.30;;;9.77;;
75169;SDS011;63749;49.186;9.222;2022-12-08T03:59:09;26.35;;;10.23;;
75169;SDS011;63749;49.186;9.222;2022-12-08T04:01:35;25.55;;;10.07;;
75169;SDS011;63749;49.186;9.222;2022-12-08T04:04:00;21.57;;;9.27;;
75169;SDS011;63749;49.186;9.222;2022-12-08T04:06:26;22.53;;;10.07;;
75169;SDS011;63749;49.186;9.222;2022-12-08T04:08:51;26.23;;;10.00;;
75169;SDS011;63749;49.186;9.222;2022-12-08T04:11:17;23.67;;;9.80;;
75169;SDS011;63749;49.186;9.222;2022-12-08T04:13:43;26.23;;;10.13;;
75169;SDS011;63749;49.186;9.222;2022-12-08T04:16:19;26.42;;;10.07;;
75169;SDS011;63749;49.186;9.222;2022-12-08T04:18:47;25.60;;;10.33;;
75169;SDS011;63749;49.186;9.222;2022-12-08T04:21:12;25.17;;;10.38;;
75169;SDS011;63749;49.186;9.222;2022-12-08T04:23:38;25.60;;;10.30;;
75169;SDS011;63749;49.186;9.222;2022-12-08T04:26:03;29.10;;;10.80;;
75169;SDS011;63749;49.186;9.222;2022-12-08T04:28:29;26.70;;;10.65;;
75169;SDS011;63749;49.186;9.222;2022-12-08T04:30:55;22.70;;;9.67;;
75169;SDS011;63749;49.186;9.222;2022-12-08T04:33:20;23.20;;;9.73;;
75169;SDS011;63749;49.186;9.222;2022-12-08T04:35:46;23.97;;;10.50;;
75169;SDS011;63749;49.186;9.222;2022-12-08T04:38:11;25.30;;;10.87;;
75169;SDS011;63749;49.186;9.222;2022-12-08T04:40:37;24.15;;;10.15;;
75169;SDS011;63749;49.186;9.222;2022-12-08T04:43:03;24.77;;;11.25;;
75169;SDS011;63749;49.186;9.222;2022-12-08T04:45:29;26.93;;;11.83;;
75169;SDS011;63749;49.186;9.222;2022-12-08T04:47:55;27.17;;;11.48;;
75169;SDS011;63749;49.186;9.222;2022-12-08T04:50:20;23.07;;;10.43;;
75169;SDS011;63749;49.186;9.222;2022-12-08T04:52:46;23.77;;;9.67;;
75169;SDS011;63749;49.186;9.222;2022-12-08T04:55:11;20.85;;;9.63;;
75169;SDS011;63749;49.186;9.222;2022-12-08T04:57:36;20.07;;;8.40;;
75169;SDS011;63749;49.186;9.222;2022-12-08T05:00:03;19.03;;;8.23;;
75169;SDS011;63749;49.186;9.222;2022-12-08T05:02:29;19.05;;;8.15;;
75169;SDS011;63749;49.186;9.222;2022-12-08T05:04:54;20.23;;;8.53;;
75169;SDS011;63749;49.186;9.222;2022-12-08T05:07:20;19.80;;;8.73;;
75169;SDS011;63749;49.186;9.222;2022-12-08T05:09:45;19.88;;;9.15;;
75169;SDS011;63749;49.186;9.222;2022-12-08T05:12:11;21.57;;;8.93;;
75169;SDS011;63749;49.186;9.222;2022-12-08T05:14:36;19.83;;;8.40;;
75169;SDS011;63749;49.186;9.222;2022-12-08T05:17:01;24.40;;;9.17;;
75169;SDS011;63749;49.186;9.222;2022-12-08T05:19:27;20.50;;;8.87;;
75169;SDS011;63749;49.186;9.222;2022-12-08T05:21:52;21.57;;;8.93;;
75169;SDS011;63749;49.186;9.222;2022-12-08T05:24:17;20.17;;;9.07;;
75169;SDS011;63749;49.186;9.222;2022-12-08T05:26:43;21.05;;;9.00;;
75169;SDS011;63749;49.186;9.222;2022-12-08T05:29:08;20.83;;;9.20;;
75169;SDS011;63749;49.186;9.222;2022-12-08T05:31:33;21.30;;;10.00;;
75169;SDS011;63749;49.186;9.222;2022-12-08T05:33:59;20.67;;;9.57;;
75169;SDS011;63749;49.186;9.222;2022-12-08T05:36:24;20.30;;;9.53;;
75169;SDS011;63749;49.186;9.222;2022-12-08T05:38:49;23.70;;;10.00;;
75169;SDS011;63749;49.186;9.222;2022-12-08T05:41:16;20.47;;;9.23;;
75169;SDS011;63749;49.186;9.222;2022-12-08T05:43:43;24.60;;;10.02;;
75169;SDS011;63749;49.186;9.222;2022-12-08T05:46:09;19.63;;;9.45;;
75169;SDS011;63749;49.186;9.222;2022-12-08T05:48:35;18.85;;;8.65;;
75169;SDS011;63749;49.186;9.222;2022-12-08T05:51:01;22.33;;;9.67;;
75169;SDS011;63749;49.186;9.222;2022-12-08T05:53:26;19.60;;;9.00;;
75169;SDS011;63749;49.186;9.222;2022-12-08T05:55:52;22.17;;;8.95;;
75169;SDS011;63749;49.186;9.222;2022-12-08T05:58:18;21.77;;;9.03;;
75169;SDS011;63749;49.186;9.222;2022-12-08T06:00:45;19.60;;;9.07;;
75169;SDS011;63749;49.186;9.222;2022-12-08T06:03:11;22.80;;;8.55;;
75169;SDS011;63749;49.186;9.222;2022-12-08T06:05:37;21.20;;;8.97;;
75169;SDS011;63749;49.186;9.222;2022-12-08T06:08:04;20.48;;;8.73;;
75169;SDS011;63749;49.186;9.222;2022-12-08T06:10:29;22.43;;;9.50;;
75169;SDS011;63749;49.186;9.222;2022-12-08T06:12:54;22.57;;;9.17;;
75169;SDS011;63749;49.186;9.222;2022-12-08T06:15:20;19.47;;;8.83;;
75169;SDS011;63749;49.186;9.222;2022-12-08T06:17:45;21.27;;;9.20;;
75169;SDS011;63749;49.186;9.222;2022-12-08T06:20:10;18.33;;;8.80;;
75169;SDS011;63749;49.186;9.222;2022-12-08T06:22:36;22.23;;;8.57;;
75169;SDS011;63749;49.186;9.222;2022-12-08T06:25:02;18.65;;;8.32;;
75169;SDS011;63749;49.186;9.222;2022-12-08T06:27:28;18.35;;;8.38;;
75169;SDS011;63749;49.186;9.222;2022-12-08T06:29:54;17.60;;;8.37;;
75169;SDS011;63749;49.186;9.222;2022-12-08T06:32:19;19.13;;;8.52;;
75169;SDS011;63749;49.186;9.222;2022-12-08T06:34:45;19.37;;;8.47;;
75169;SDS011;63749;49.186;9.222;2022-12-08T06:37:10;18.30;;;7.97;;
75169;SDS011;63749;49.186;9.222;2022-12-08T06:39:35;17.77;;;8.07;;
75169;SDS011;63749;49.186;9.222;2022-12-08T06:42:01;18.53;;;8.20;;
75169;SDS011;63749;49.186;9.222;2022-12-08T06:44:45;16.02;;;7.90;;
75169;SDS011;63749;49.186;9.222;2022-12-08T06:47:11;18.58;;;8.60;;
75169;SDS011;63749;49.186;9.222;2022-12-08T06:49:36;19.37;;;8.63;;
75169;SDS011;63749;49.186;9.222;2022-12-08T06:52:01;18.23;;;8.90;;
75169;SDS011;63749;49.186;9.222;2022-12-08T06:54:27;18.70;;;8.10;;
75169;SDS011;63749;49.186;9.222;2022-12-08T06:56:52;21.27;;;8.25;;
75169;SDS011;63749;49.186;9.222;2022-12-08T06:59:17;16.70;;;8.10;;
75169;SDS011;63749;49.186;9.222;2022-12-08T07:01:43;21.53;;;8.00;;
75169;SDS011;63749;49.186;9.222;2022-12-08T07:04:09;18.15;;;8.05;;
75169;SDS011;63749;49.186;9.222;2022-12-08T07:06:34;17.80;;;8.23;;
75169;SDS011;63749;49.186;9.222;2022-12-08T07:09:00;17.37;;;8.70;;
75169;SDS011;63749;49.186;9.222;2022-12-08T07:11:25;20.37;;;8.17;;
75169;SDS011;63749;49.186;9.222;2022-12-08T07:13:51;18.42;;;8.27;;
75169;SDS011;63749;49.186;9.222;2022-12-08T07:16:16;17.87;;;8.30;;
75169;SDS011;63749;49.186;9.222;2022-12-08T07:18:41;20.17;;;8.57;;
75169;SDS011;63749;49.186;9.222;2022-12-08T07:21:09;15.02;;;8.05;;
75169;SDS011;63749;49.186;9.222;2022-12-08T07:23:35;20.55;;;8.65;;
75169;SDS011;63749;49.186;9.222;2022-12-08T07:26:05;24.73;;;8.97;;
75169;SDS011;63749;49.186;9.222;2022-12-08T07:28:33;21.70;;;8.18;;
75169;SDS011;63749;49.186;9.222;2022-12-08T07:31:00;18.58;;;8.80;;
75169;SDS011;63749;49.186;9.222;2022-12-08T07:33:25;20.93;;;8.80;;
75169;SDS011;63749;49.186;9.222;2022-12-08T07:35:55;19.52;;;9.02;;
75169;SDS011;63749;49.186;9.222;2022-12-08T07:38:22;20.67;;;8.80;;
75169;SDS011;63749;49.186;9.222;2022-12-08T07:40:48;19.92;;;8.60;;
75169;SDS011;63749;49.186;9.222;2022-12-08T07:43:13;19.23;;;8.47;;
75169;SDS011;63749;49.186;9.222;2022-12-08T07:45:39;22.13;;;8.90;;
75169;SDS011;63749;49.186;9.222;2022-12-08T07:48:05;21.33;;;9.10;;
75169;SDS011;63749;49.186;9.222;2022-12-08T07:50:31;20.17;;;9.25;;
75169;SDS011;63749;49.186;9.222;2022-12-08T07:52:57;22.43;;;9.23;;
75169;SDS011;63749;49.186;9.222;2022-12-08T07:55:22;21.80;;;8.57;;
75169;SDS011;63749;49.186;9.222;2022-12-08T07:57:48;20.20;;;8.83;;
75169;SDS011;63749;49.186;9.222;2022-12-08T08:00:14;18.95;;;8.85;;
75169;SDS011;63749;49.186;9.222;2022-12-08T08:02:40;19.00;;;8.97;;
75169;SDS011;63749;49.186;9.222;2022-12-08T08:05:06;19.27;;;8.70;;
75169;SDS011;63749;49.186;9.222;2022-12-08T08:07:32;17.30;;;8.80;;
75169;SDS011;63749;49.186;9.222;2022-12-08T08:09:57;22.03;;;8.67;;
75169;SDS011;63749;49.186;9.222;2022-12-08T08:12:23;19.23;;;9.03;;
75169;SDS011;63749;49.186;9.222;2022-12-08T08:14:48;17.13;;;8.33;;
75169;SDS011;63749;49.186;9.222;2022-12-08T08:17:13;17.97;;;8.67;;
75169;SDS011;63749;49.186;9.222;2022-12-08T08:19:39;18.20;;;8.20;;
75169;SDS011;63749;49.186;9.222;2022-12-08T08:22:04;19.57;;;9.43;;
75169;SDS011;63749;49.186;9.222;2022-12-08T08:24:29;17.03;;;8.30;;
75169;SDS011;63749;49.186;9.222;2022-12-08T08:26:55;18.63;;;8.90;;
75169;SDS011;63749;49.186;9.222;2022-12-08T08:29:20;17.13;;;8.37;;
75169;SDS011;63749;49.186;9.222;2022-12-08T08:31:46;16.42;;;8.05;;
75169;SDS011;63749;49.186;9.222;2022-12-08T08:34:12;18.10;;;8.83;;
75169;SDS011;63749;49.186;9.222;2022-12-08T08:36:37;18.02;;;9.07;;
75169;SDS011;63749;49.186;9.222;2022-12-08T08:39:03;18.97;;;8.70;;
75169;SDS011;63749;49.186;9.222;2022-12-08T08:41:29;19.42;;;9.23;;
75169;SDS011;63749;49.186;9.222;2022-12-08T08:43:54;18.17;;;8.67;;
75169;SDS011;63749;49.186;9.222;2022-12-08T08:46:20;17.70;;;8.33;;
75169;SDS011;63749;49.186;9.222;2022-12-08T08:48:45;19.87;;;9.03;;
75169;SDS011;63749;49.186;9.222;2022-12-08T08:51:11;23.93;;;8.53;;
75169;SDS011;63749;49.186;9.222;2022-12-08T08:53:37;18.43;;;8.63;;
75169;SDS011;63749;49.186;9.222;2022-12-08T08:56:08;19.00;;;8.98;;
75169;SDS011;63749;49.186;9.222;2022-12-08T08:58:38;22.95;;;9.25;;
75169;SDS011;63749;49.186;9.222;2022-12-08T09:01:03;19.80;;;9.20;;
75169;SDS011;63749;49.186;9.222;2022-12-08T09:03:29;19.80;;;8.97;;
75169;SDS011;63749;49.186;9.222;2022-12-08T09:05:54;22.43;;;9.00;;
75169;SDS011;63749;49.186;9.222;2022-12-08T09:08:20;19.25;;;9.00;;
75169;SDS011;63749;49.186;9.222;2022-12-08T09:10:46;19.37;;;9.20;;
75169;SDS011;63749;49.186;9.222;2022-12-08T09:13:11;23.67;;;9.40;;
75169;SDS011;63749;49.186;9.222;2022-12-08T09:15:37;22.70;;;8.80;;
75169;SDS011;63749;49.186;9.222;2022-12-08T09:18:02;20.83;;;9.00;;
75169;SDS011;63749;49.186;9.222;2022-12-08T09:20:30;21.25;;;9.57;;
75169;SDS011;63749;49.186;9.222;2022-12-08T09:22:56;27.83;;;10.23;;
75169;SDS011;63749;49.186;9.222;2022-12-08T09:25:21;20.57;;;9.17;;
75169;SDS011;63749;49.186;9.222;2022-12-08T09:27:46;21.20;;;8.83;;
75169;SDS011;63749;49.186;9.222;2022-12-08T09:30:12;23.30;;;9.40;;
75169;SDS011;63749;49.186;9.222;2022-12-08T09:32:37;24.23;;;9.80;;
75169;SDS011;63749;49.186;9.222;2022-12-08T09:35:03;24.23;;;10.60;;
75169;SDS011;63749;49.186;9.222;2022-12-08T09:37:28;21.67;;;9.77;;
75169;SDS011;63749;49.186;9.222;2022-12-08T09:39:54;22.05;;;9.73;;
75169;SDS011;63749;49.186;9.222;2022-12-08T09:42:39;18.23;;;9.00;;
75169;SDS011;63749;49.186;9.222;2022-12-08T09:45:23;17.50;;;8.10;;
75169;SDS011;63749;49.186;9.222;2022-12-08T09:47:58;20.93;;;9.07;;
75169;SDS011;63749;49.186;9.222;2022-12-08T09:50:40;18.35;;;7.82;;
75169;SDS011;63749;49.186;9.222;2022-12-08T09:55:54;21.52;;;8.75;;
75169;SDS011;63749;49.186;9.222;2022-12-08T10:01:14;17.87;;;7.90;;
75169;SDS011;63749;49.186;9.222;2022-12-08T10:03:40;15.35;;;8.15;;
75169;SDS011;63749;49.186;9.222;2022-12-08T10:06:08;22.70;;;9.63;;
75169;SDS011;63749;49.186;9.222;2022-12-08T10:08:48;19.20;;;8.23;;
75169;SDS011;63749;49.186;9.222;2022-12-08T10:11:23;16.25;;;7.68;;
75169;SDS011;63749;49.186;9.222;2022-12-08T10:14:17;16.23;;;8.60;;
75169;SDS011;63749;49.186;9.222;2022-12-08T10:17:04;19.00;;;7.75;;
75169;SDS011;63749;49.186;9.222;2022-12-08T10:20:05;17.63;;;7.10;;
75169;SDS011;63749;49.186;9.222;2022-12-08T10:22:39;20.45;;;8.38;;
75169;SDS011;63749;49.186;9.222;2022-12-08T10:25:16;17.20;;;8.00;;
75169;SDS011;63749;49.186;9.222;2022-12-08T10:27:42;17.10;;;7.88;;
75169;SDS011;63749;49.186;9.222;2022-12-08T10:30:11;14.97;;;7.70;;
75169;SDS011;63749;49.186;9.222;2022-12-08T10:32:37;17.35;;;8.07;;
75169;SDS011;63749;49.186;9.222;2022-12-08T10:35:07;18.38;;;8.27;;
75169;SDS011;63749;49.186;9.222;2022-12-08T10:37:35;17.27;;;8.13;;
75169;SDS011;63749;49.186;9.222;2022-12-08T10:42:34;15.48;;;8.25;;
75169;SDS011;63749;49.186;9.222;2022-12-08T10:47:36;17.37;;;7.73;;
75169;SDS011;63749;49.186;9.222;2022-12-08T10:50:24;16.27;;;8.35;;
75169;SDS011;63749;49.186;9.222;2022-12-08T10:53:18;18.70;;;8.60;;
75169;SDS011;63749;49.186;9.222;2022-12-08T10:58:27;16.60;;;8.30;;
75169;SDS011;63749;49.186;9.222;2022-12-08T11:01:02;16.87;;;7.90;;
75169;SDS011;63749;49.186;9.222;2022-12-08T11:03:29;12.93;;;7.10;;
75169;SDS011;63749;49.186;9.222;2022-12-08T11:05:58;16.63;;;7.60;;
75169;SDS011;63749;49.186;9.222;2022-12-08T11:08:25;15.88;;;7.55;;
75169;SDS011;63749;49.186;9.222;2022-12-08T11:10:52;14.30;;;7.43;;
75169;SDS011;63749;49.186;9.222;2022-12-08T11:13:24;16.73;;;7.47;;
75169;SDS011;63749;49.186;9.222;2022-12-08T11:15:52;12.70;;;7.13;;
75169;SDS011;63749;49.186;9.222;2022-12-08T11:18:38;12.80;;;6.93;;
75169;SDS011;63749;49.186;9.222;2022-12-08T11:21:15;14.70;;;7.13;;
75169;SDS011;63749;49.186;9.222;2022-12-08T11:23:45;19.27;;;8.10;;
75169;SDS011;63749;49.186;9.222;2022-12-08T11:26:28;14.30;;;7.10;;
75169;SDS011;63749;49.186;9.222;2022-12-08T11:28:56;12.65;;;6.93;;
75169;SDS011;63749;49.186;9.222;2022-12-08T11:33:58;12.90;;;6.85;;
75169;SDS011;63749;49.186;9.222;2022-12-08T11:36:26;14.50;;;7.03;;
75169;SDS011;63749;49.186;9.222;2022-12-08T11:38:58;15.03;;;6.90;;
75169;SDS011;63749;49.186;9.222;2022-12-08T11:41:30;14.27;;;6.57;;
75169;SDS011;63749;49.186;9.222;2022-12-08T11:46:45;14.40;;;7.50;;
75169;SDS011;63749;49.186;9.222;2022-12-08T11:49:16;12.13;;;6.55;;
75169;SDS011;63749;49.186;9.222;2022-12-08T11:51:52;13.93;;;6.72;;
75169;SDS011;63749;49.186;9.222;2022-12-08T11:54:25;13.98;;;5.60;;
75169;SDS011;63749;49.186;9.222;2022-12-08T11:56:55;14.33;;;6.00;;
75169;SDS011;63749;49.186;9.222;2022-12-08T11:59:24;15.88;;;6.13;;
75169;SDS011;63749;49.186;9.222;2022-12-08T12:02:03;12.55;;;5.35;;
75169;SDS011;63749;49.186;9.222;2022-12-08T12:04:36;14.48;;;5.88;;
75169;SDS011;63749;49.186;9.222;2022-12-08T12:15:31;10.82;;;5.53;;
75169;SDS011;63749;49.186;9.222;2022-12-08T12:18:11;15.70;;;5.75;;
75169;SDS011;63749;49.186;9.222;2022-12-08T12:23:46;12.83;;;6.23;;
75169;SDS011;63749;49.186;9.222;2022-12-08T12:26:24;13.80;;;6.30;;
75169;SDS011;63749;49.186;9.222;2022-12-08T12:28:54;13.40;;;6.38;;
75169;SDS011;63749;49.186;9.222;2022-12-08T12:31:22;14.50;;;6.55;;
75169;SDS011;63749;49.186;9.222;2022-12-08T12:33:50;13.68;;;6.20;;
75169;SDS011;63749;49.186;9.222;2022-12-08T12:36:19;13.20;;;6.17;;
75169;SDS011;63749;49.186;9.222;2022-12-08T12:38:46;15.00;;;6.10;;
75169;SDS011;63749;49.186;9.222;2022-12-08T12:41:31;12.77;;;5.97;;
75169;SDS011;63749;49.186;9.222;2022-12-08T12:49:46;11.90;;;6.03;;
75169;SDS011;63749;49.186;9.222;2022-12-08T13:02:25;10.93;;;5.93;;
75169;SDS011;63749;49.186;9.222;2022-12-08T13:05:02;11.80;;;5.60;;
75169;SDS011;63749;49.186;9.222;2022-12-08T13:10:32;13.60;;;5.65;;
75169;SDS011;63749;49.186;9.222;2022-12-08T13:13:04;12.68;;;5.80;;
75169;SDS011;63749;49.186;9.222;2022-12-08T13:15:49;12.77;;;5.83;;
75169;SDS011;63749;49.186;9.222;2022-12-08T13:18:18;16.98;;;5.80;;
75169;SDS011;63749;49.186;9.222;2022-12-08T13:21:03;13.02;;;5.40;;
75169;SDS011;63749;49.186;9.222;2022-12-08T13:26:41;14.07;;;5.72;;
75169;SDS011;63749;49.186;9.222;2022-12-08T13:31:50;14.77;;;5.20;;
75169;SDS011;63749;49.186;9.222;2022-12-08T13:39:42;11.70;;;5.37;;
75169;SDS011;63749;49.186;9.222;2022-12-08T13:44:42;10.37;;;4.97;;
75169;SDS011;63749;49.186;9.222;2022-12-08T13:47:12;11.07;;;5.20;;
75169;SDS011;63749;49.186;9.222;2022-12-08T13:49:43;11.85;;;5.13;;
75169;SDS011;63749;49.186;9.222;2022-12-08T13:52:17;10.73;;;4.73;;
75169;SDS011;63749;49.186;9.222;2022-12-08T13:54:50;12.65;;;5.90;;
75169;SDS011;63749;49.186;9.222;2022-12-08T13:57:26;14.87;;;6.10;;
75169;SDS011;63749;49.186;9.222;2022-12-08T13:59:55;11.63;;;5.68;;
75169;SDS011;63749;49.186;9.222;2022-12-08T14:02:26;11.20;;;5.78;;
75169;SDS011;63749;49.186;9.222;2022-12-08T14:04:59;12.02;;;6.30;;
75169;SDS011;63749;49.186;9.222;2022-12-08T14:07:25;12.93;;;5.80;;
75169;SDS011;63749;49.186;9.222;2022-12-08T14:09:50;14.65;;;5.72;;
75169;SDS011;63749;49.186;9.222;2022-12-08T14:12:26;14.80;;;5.97;;
75169;SDS011;63749;49.186;9.222;2022-12-08T14:14:52;13.40;;;6.10;;
75169;SDS011;63749;49.186;9.222;2022-12-08T14:17:23;18.45;;;8.88;;
75169;SDS011;63749;49.186;9.222;2022-12-08T14:19:59;19.95;;;9.27;;
75169;SDS011;63749;49.186;9.222;2022-12-08T14:22:37;16.33;;;6.83;;
75169;SDS011;63749;49.186;9.222;2022-12-08T14:25:05;14.88;;;7.20;;
75169;SDS011;63749;49.186;9.222;2022-12-08T14:27:33;12.57;;;6.53;;
75169;SDS011;63749;49.186;9.222;2022-12-08T14:30:07;14.00;;;6.38;;
75169;SDS011;63749;49.186;9.222;2022-12-08T14:37:31;14.60;;;6.40;;
75169;SDS011;63749;49.186;9.222;2022-12-08T14:40:05;12.70;;;6.13;;
75169;SDS011;63749;49.186;9.222;2022-12-08T14:42:45;11.93;;;5.63;;
75169;SDS011;63749;49.186;9.222;2022-12-08T14:45:13;13.63;;;5.88;;
75169;SDS011;63749;49.186;9.222;2022-12-08T14:47:40;12.50;;;6.40;;
75169;SDS011;63749;49.186;9.222;2022-12-08T14:52:59;13.82;;;5.93;;
75169;SDS011;63749;49.186;9.222;2022-12-08T14:55:24;11.97;;;5.87;;
75169;SDS011;63749;49.186;9.222;2022-12-08T14:57:50;16.27;;;6.63;;
75169;SDS011;63749;49.186;9.222;2022-12-08T15:00:26;16.90;;;6.90;;
75169;SDS011;63749;49.186;9.222;2022-12-08T15:02:52;14.63;;;6.03;;
75169;SDS011;63749;49.186;9.222;2022-12-08T15:05:18;12.63;;;5.70;;
75169;SDS011;63749;49.186;9.222;2022-12-08T15:07:48;13.93;;;5.97;;
75169;SDS011;63749;49.186;9.222;2022-12-08T15:12:58;12.97;;;6.53;;
75169;SDS011;63749;49.186;9.222;2022-12-08T15:15:26;12.00;;;5.93;;
75169;SDS011;63749;49.186;9.222;2022-12-08T15:18:05;10.00;;;5.20;;
75169;SDS011;63749;49.186;9.222;2022-12-08T15:20:40;11.63;;;5.40;;
75169;SDS011;63749;49.186;9.222;2022-12-08T15:23:21;12.45;;;5.75;;
75169;SDS011;63749;49.186;9.222;2022-12-08T15:25:53;11.35;;;5.60;;
75169;SDS011;63749;49.186;9.222;2022-12-08T15:28:20;12.00;;;5.78;;
75169;SDS011;63749;49.186;9.222;2022-12-08T15:30:47;12.20;;;5.60;;
75169;SDS011;63749;49.186;9.222;2022-12-08T15:33:13;10.93;;;5.95;;
75169;SDS011;63749;49.186;9.222;2022-12-08T15:35:39;10.17;;;5.60;;
75169;SDS011;63749;49.186;9.222;2022-12-08T15:38:04;15.43;;;6.05;;
75169;SDS011;63749;49.186;9.222;2022-12-08T15:40:30;12.00;;;5.57;;
75169;SDS011;63749;49.186;9.222;2022-12-08T15:42:56;11.87;;;5.73;;
75169;SDS011;63749;49.186;9.222;2022-12-08T15:45:22;17.67;;;6.13;;
75169;SDS011;63749;49.186;9.222;2022-12-08T15:47:53;12.73;;;6.70;;
75169;SDS011;63749;49.186;9.222;2022-12-08T15:50:21;14.53;;;6.67;;
75169;SDS011;63749;49.186;9.222;2022-12-08T15:52:47;14.95;;;6.22;;
75169;SDS011;63749;49.186;9.222;2022-12-08T15:55:14;13.23;;;6.10;;
75169;SDS011;63749;49.186;9.222;2022-12-08T15:57:41;18.88;;;6.28;;
75169;SDS011;63749;49.186;9.222;2022-12-08T16:02:49;14.83;;;6.37;;
75169;SDS011;63749;49.186;9.222;2022-12-08T16:05:14;13.97;;;5.87;;
75169;SDS011;63749;49.186;9.222;2022-12-08T16:07:39;14.00;;;5.95;;
75169;SDS011;63749;49.186;9.222;2022-12-08T16:10:05;17.87;;;6.43;;
75169;SDS011;63749;49.186;9.222;2022-12-08T16:12:31;17.48;;;6.57;;
75169;SDS011;63749;49.186;9.222;2022-12-08T16:15:15;14.30;;;6.17;;
75169;SDS011;63749;49.186;9.222;2022-12-08T16:17:41;15.88;;;6.35;;
75169;SDS011;63749;49.186;9.222;2022-12-08T16:20:10;17.20;;;6.13;;